world map with FLKK marked

FLKK - Airport

This information may not be accurate or current and is not valid for navigation or flight planning. No warranty of fitness for any purpose is made or implied.

flag of Zambia

Donate via PayPal

Additional information is available on the NEW Great Circle Mapper

Location
City:  Lusaka, Lusaka, Zambia
Name:Kenneth Kaunda International Airport
ICAO / IATA:FLKK / LUN

Details
Type:Airport (Aerodrome, Airfield)
Use:Public/Civil, Military
Latitude:15°19'51"S (-15.330816)
Longitude:28°27'09"E (28.452628)
Elevation:3779 ft (1152 m)
Runways:2
Longest:12998 × 150 ft (3962 × 45.5 m)

Time
Timezone:UTC+2 (DST+4)
Local Time:

Weather
METAR:FLKK  041400Z 13012KT 9000 FEW040CB BKN045 26/18 Q1015
TAF:FLKK  (expired)

Related Locations
Nearby:
Farthest:ITO: 12056 mi / 19403 km
Hilo [Hilo Intl], Hawaii, HI, US

Find:

   beyond  
but within

Other Information
Maps:
Sources:

  


 


Great Circle Mapper   Great Circle Mapper
Great Circle Mapper FAQ   Great Circle Mapper FAQ
  Karl's Home Page
KLSē   KLSē Home
   GC on Facebook
Airlines of the World   Airlines of the World
Donate via PayPal


Copyright © 2004-2019, Karl L. Swartz. All rights reserved.
All trademarks mentioned herein belong to their respective owners.

Please see credits for attribution and copyright information.

Karl Swartz <karl@kls2.com>
  Powered by FreeBSD
Valid HTML 4.01!
Labeled with ICRA
hCard Microformat
Geo Microformat